sensor_id;sensor_type;location;lat;lon;timestamp;pressure;altitude;pressure_sealevel;temperature;humidity
55191;BME280;41070;50.360;18.742;2023-02-24T17:00:56;97023.52;;;6.72;99.93
55191;BME280;41070;50.360;18.742;2023-02-24T17:03:32;97022.23;;;6.74;99.51
55191;BME280;41070;50.360;18.742;2023-02-24T17:06:05;97024.43;;;6.73;99.31
55191;BME280;41070;50.360;18.742;2023-02-24T17:08:33;97017.11;;;6.71;99.08
55191;BME280;41070;50.360;18.742;2023-02-24T17:11:01;97015.95;;;6.70;99.25
55191;BME280;41070;50.360;18.742;2023-02-24T17:13:29;97012.04;;;6.68;99.05
55191;BME280;41070;50.360;18.742;2023-02-24T17:15:57;97009.44;;;6.66;99.01
55191;BME280;41070;50.360;18.742;2023-02-24T17:18:25;97015.59;;;6.67;99.48
55191;BME280;41070;50.360;18.742;2023-02-24T17:20:53;97011.23;;;6.70;99.36
55191;BME280;41070;50.360;18.742;2023-02-24T17:23:20;97005.12;;;6.72;99.48
55191;BME280;41070;50.360;18.742;2023-02-24T17:25:54;96990.90;;;6.71;99.05
55191;BME280;41070;50.360;18.742;2023-02-24T17:28:23;96992.36;;;6.68;99.05
55191;BME280;41070;50.360;18.742;2023-02-24T17:30:51;96987.35;;;6.63;98.85
55191;BME280;41070;50.360;18.742;2023-02-24T17:33:19;96980.40;;;6.60;98.97
55191;BME280;41070;50.360;18.742;2023-02-24T17:35:47;96989.02;;;6.58;98.88
55191;BME280;41070;50.360;18.742;2023-02-24T17:38:17;96987.66;;;6.54;98.80
55191;BME280;41070;50.360;18.742;2023-02-24T17:40:46;96989.11;;;6.50;98.93
55191;BME280;41070;50.360;18.742;2023-02-24T17:43:14;96989.09;;;6.49;98.99
55191;BME280;41070;50.360;18.742;2023-02-24T17:45:43;96984.84;;;6.49;99.19
55191;BME280;41070;50.360;18.742;2023-02-24T17:48:13;96982.45;;;6.47;98.79
55191;BME280;41070;50.360;18.742;2023-02-24T17:50:44;96976.34;;;6.44;99.02
55191;BME280;41070;50.360;18.742;2023-02-24T17:53:12;96968.71;;;6.43;99.03
55191;BME280;41070;50.360;18.742;2023-02-24T17:55:40;96969.73;;;6.40;99.18
55191;BME280;41070;50.360;18.742;2023-02-24T17:58:08;96963.30;;;6.37;99.03
55191;BME280;41070;50.360;18.742;2023-02-24T18:00:36;96961.52;;;6.35;99.12
55191;BME280;41070;50.360;18.742;2023-02-24T18:03:04;96961.48;;;6.33;99.06
55191;BME280;41070;50.360;18.742;2023-02-24T18:05:31;96955.83;;;6.29;98.92
55191;BME280;41070;50.360;18.742;2023-02-24T18:07:59;96956.17;;;6.28;99.17
55191;BME280;41070;50.360;18.742;2023-02-24T18:10:27;96950.83;;;6.30;99.36
55191;BME280;41070;50.360;18.742;2023-02-24T18:12:57;96950.85;;;6.28;99.19
55191;BME280;41070;50.360;18.742;2023-02-24T18:15:25;96946.44;;;6.27;99.11
55191;BME280;41070;50.360;18.742;2023-02-24T18:17:55;96949.27;;;6.28;99.33
55191;BME280;41070;50.360;18.742;2023-02-24T18:20:23;96944.27;;;6.29;99.29
55191;BME280;41070;50.360;18.742;2023-02-24T18:22:51;96938.58;;;6.29;99.37
55191;BME280;41070;50.360;18.742;2023-02-24T18:25:18;96932.71;;;6.28;99.23
55191;BME280;41070;50.360;18.742;2023-02-24T18:27:46;96923.80;;;6.30;99.25
55191;BME280;41070;50.360;18.742;2023-02-24T18:30:14;96918.90;;;6.31;99.51
55191;BME280;41070;50.360;18.742;2023-02-24T18:32:44;96915.61;;;6.31;99.34
55191;BME280;41070;50.360;18.742;2023-02-24T18:35:12;96909.34;;;6.28;99.16
55191;BME280;41070;50.360;18.742;2023-02-24T18:37:41;96909.47;;;6.27;99.33
55191;BME280;41070;50.360;18.742;2023-02-24T18:40:09;96899.52;;;6.26;99.48
55191;BME280;41070;50.360;18.742;2023-02-24T18:42:37;96908.10;;;6.26;99.31
55191;BME280;41070;50.360;18.742;2023-02-24T18:45:05;96896.09;;;6.24;99.43
55191;BME280;41070;50.360;18.742;2023-02-24T18:47:33;96895.23;;;6.23;99.29
55191;BME280;41070;50.360;18.742;2023-02-24T18:50:01;96891.59;;;6.24;99.51
55191;BME280;41070;50.360;18.742;2023-02-24T18:52:28;96885.77;;;6.25;99.41
55191;BME280;41070;50.360;18.742;2023-02-24T18:54:56;96883.48;;;6.26;99.61
55191;BME280;41070;50.360;18.742;2023-02-24T18:57:26;96884.44;;;6.27;99.48
55191;BME280;41070;50.360;18.742;2023-02-24T18:59:54;96880.14;;;6.25;99.27
55191;BME280;41070;50.360;18.742;2023-02-24T19:02:22;96877.27;;;6.25;99.48
55191;BME280;41070;50.360;18.742;2023-02-24T19:04:49;96866.58;;;6.26;99.51
55191;BME280;41070;50.360;18.742;2023-02-24T19:07:18;96868.58;;;6.27;99.28
55191;BME280;41070;50.360;18.742;2023-02-24T19:09:47;96866.32;;;6.24;99.04
55191;BME280;41070;50.360;18.742;2023-02-24T19:12:14;96861.42;;;6.21;99.13
55191;BME280;41070;50.360;18.742;2023-02-24T19:14:44;96859.44;;;6.20;98.96
55191;BME280;41070;50.360;18.742;2023-02-24T19:17:12;96849.78;;;6.19;99.13
55191;BME280;41070;50.360;18.742;2023-02-24T19:19:39;96848.23;;;6.18;99.01
55191;BME280;41070;50.360;18.742;2023-02-24T19:22:08;96847.09;;;6.17;98.88
55191;BME280;41070;50.360;18.742;2023-02-24T19:24:39;96845.55;;;6.15;98.92
55191;BME280;41070;50.360;18.742;2023-02-24T19:27:08;96840.86;;;6.17;99.27
55191;BME280;41070;50.360;18.742;2023-02-24T19:29:36;96831.59;;;6.16;99.10
55191;BME280;41070;50.360;18.742;2023-02-24T19:32:03;96829.41;;;6.18;99.26
55191;BME280;41070;50.360;18.742;2023-02-24T19:34:31;96826.67;;;6.17;99.11
55191;BME280;41070;50.360;18.742;2023-02-24T19:36:59;96823.42;;;6.18;99.08
55191;BME280;41070;50.360;18.742;2023-02-24T19:39:27;96814.40;;;6.19;99.23
55191;BME280;41070;50.360;18.742;2023-02-24T19:42:04;96815.80;;;6.20;99.43
55191;BME280;41070;50.360;18.742;2023-02-24T19:44:32;96814.42;;;6.20;99.10
55191;BME280;41070;50.360;18.742;2023-02-24T19:47:00;96811.79;;;6.20;99.21
55191;BME280;41070;50.360;18.742;2023-02-24T19:49:28;96804.73;;;6.20;99.38
55191;BME280;41070;50.360;18.742;2023-02-24T19:51:56;96797.11;;;6.19;99.23
55191;BME280;41070;50.360;18.742;2023-02-24T19:54:26;96797.00;;;6.16;99.35
55191;BME280;41070;50.360;18.742;2023-02-24T19:56:54;96789.94;;;6.16;99.23
55191;BME280;41070;50.360;18.742;2023-02-24T19:59:23;96785.97;;;6.14;99.41
55191;BME280;41070;50.360;18.742;2023-02-24T20:01:51;96785.77;;;6.16;99.58
55191;BME280;41070;50.360;18.742;2023-02-24T20:04:20;96779.34;;;6.17;99.52
55191;BME280;41070;50.360;18.742;2023-02-24T20:06:48;96775.39;;;6.17;99.54
55191;BME280;41070;50.360;18.742;2023-02-24T20:09:18;96770.46;;;6.19;99.61
55191;BME280;41070;50.360;18.742;2023-02-24T20:11:49;96767.40;;;6.21;99.31
55191;BME280;41070;50.360;18.742;2023-02-24T20:14:18;96760.58;;;6.21;99.45
55191;BME280;41070;50.360;18.742;2023-02-24T20:16:46;96755.20;;;6.22;99.48
55191;BME280;41070;50.360;18.742;2023-02-24T20:19:14;96753.09;;;6.22;99.42
55191;BME280;41070;50.360;18.742;2023-02-24T20:21:43;96743.34;;;6.25;99.46
55191;BME280;41070;50.360;18.742;2023-02-24T20:24:13;96733.13;;;6.23;98.91
55191;BME280;41070;50.360;18.742;2023-02-24T20:26:43;96736.23;;;6.22;99.21
55191;BME280;41070;50.360;18.742;2023-02-24T20:29:13;96736.54;;;6.22;99.17
55191;BME280;41070;50.360;18.742;2023-02-24T20:31:41;96729.83;;;6.25;99.54
55191;BME280;41070;50.360;18.742;2023-02-24T20:34:09;96726.73;;;6.27;99.49
55191;BME280;41070;50.360;18.742;2023-02-24T20:36:37;96722.95;;;6.27;99.40
55191;BME280;41070;50.360;18.742;2023-02-24T20:39:04;96722.02;;;6.26;99.25
55191;BME280;41070;50.360;18.742;2023-02-24T20:41:33;96720.71;;;6.24;99.05
55191;BME280;41070;50.360;18.742;2023-02-24T20:44:01;96718.19;;;6.23;99.09
55191;BME280;41070;50.360;18.742;2023-02-24T20:46:30;96717.59;;;6.24;99.38
55191;BME280;41070;50.360;18.742;2023-02-24T20:49:07;96720.13;;;6.27;99.28
55191;BME280;41070;50.360;18.742;2023-02-24T20:51:43;96714.94;;;6.24;99.10
55191;BME280;41070;50.360;18.742;2023-02-24T20:54:12;96709.21;;;6.22;99.34
55191;BME280;41070;50.360;18.742;2023-02-24T20:56:45;96703.59;;;6.16;99.34
55191;BME280;41070;50.360;18.742;2023-02-24T20:59:18;96690.49;;;6.12;99.50
55191;BME280;41070;50.360;18.742;2023-02-24T21:01:48;96674.96;;;6.08;99.83
55191;BME280;41070;50.360;18.742;2023-02-24T21:04:19;96669.69;;;6.05;99.91
55191;BME280;41070;50.360;18.742;2023-02-24T21:06:49;96679.59;;;6.03;99.97
55191;BME280;41070;50.360;18.742;2023-02-24T21:09:39;96689.02;;;5.99;99.92
55191;BME280;41070;50.360;18.742;2023-02-24T21:12:07;96684.13;;;5.97;99.94
55191;BME280;41070;50.360;18.742;2023-02-24T21:14:35;96682.45;;;5.97;99.84
55191;BME280;41070;50.360;18.742;2023-02-24T21:17:03;96683.00;;;5.97;99.97
55191;BME280;41070;50.360;18.742;2023-02-24T21:19:32;96686.73;;;5.97;99.90
55191;BME280;41070;50.360;18.742;2023-02-24T21:22:00;96688.10;;;5.98;99.91
55191;BME280;41070;50.360;18.742;2023-02-24T21:24:28;96684.45;;;5.98;99.78
55191;BME280;41070;50.360;18.742;2023-02-24T21:26:57;96680.19;;;5.97;99.75
55191;BME280;41070;50.360;18.742;2023-02-24T21:29:25;96676.81;;;5.95;99.95
55191;BME280;41070;50.360;18.742;2023-02-24T21:31:54;96673.46;;;5.95;99.97
55191;BME280;41070;50.360;18.742;2023-02-24T21:34:22;96661.98;;;5.92;99.75
55191;BME280;41070;50.360;18.742;2023-02-24T21:36:49;96657.60;;;5.89;99.93
55191;BME280;41070;50.360;18.742;2023-02-24T21:39:17;96650.44;;;5.87;99.93
55191;BME280;41070;50.360;18.742;2023-02-24T21:41:51;96643.22;;;5.85;99.98
55191;BME280;41070;50.360;18.742;2023-02-24T21:44:22;96640.47;;;5.84;100.00
55191;BME280;41070;50.360;18.742;2023-02-24T21:46:49;96639.41;;;5.84;100.00
55191;BME280;41070;50.360;18.742;2023-02-24T21:49:17;96639.80;;;5.85;100.00
55191;BME280;41070;50.360;18.742;2023-02-24T21:52:00;96638.43;;;5.85;99.99
55191;BME280;41070;50.360;18.742;2023-02-24T21:54:29;96630.09;;;5.84;100.00
55191;BME280;41070;50.360;18.742;2023-02-24T21:56:59;96625.00;;;5.84;99.94
55191;BME280;41070;50.360;18.742;2023-02-24T21:59:27;96616.74;;;5.84;99.92
55191;BME280;41070;50.360;18.742;2023-02-24T22:01:55;96619.29;;;5.82;99.70
55191;BME280;41070;50.360;18.742;2023-02-24T22:04:23;96618.05;;;5.80;99.65
55191;BME280;41070;50.360;18.742;2023-02-24T22:06:53;96616.45;;;5.80;99.88
55191;BME280;41070;50.360;18.742;2023-02-24T22:09:21;96618.15;;;5.82;99.98
55191;BME280;41070;50.360;18.742;2023-02-24T22:11:49;96619.77;;;5.84;99.97
55191;BME280;41070;50.360;18.742;2023-02-24T22:14:16;96616.78;;;5.87;99.99
55191;BME280;41070;50.360;18.742;2023-02-24T22:16:44;96618.89;;;5.87;99.89
55191;BME280;41070;50.360;18.742;2023-02-24T22:19:12;96618.49;;;5.85;99.79
55191;BME280;41070;50.360;18.742;2023-02-24T22:21:40;96614.85;;;5.84;99.86
55191;BME280;41070;50.360;18.742;2023-02-24T22:24:12;96616.36;;;5.85;99.96
55191;BME280;41070;50.360;18.742;2023-02-24T22:26:40;96619.40;;;5.85;99.96
55191;BME280;41070;50.360;18.742;2023-02-24T22:29:09;96627.61;;;5.86;99.98
55191;BME280;41070;50.360;18.742;2023-02-24T22:31:50;96634.57;;;5.85;99.82
55191;BME280;41070;50.360;18.742;2023-02-24T22:34:18;96636.61;;;5.80;99.92
55191;BME280;41070;50.360;18.742;2023-02-24T22:36:46;96630.05;;;5.76;99.84
55191;BME280;41070;50.360;18.742;2023-02-24T22:39:14;96630.56;;;5.75;99.96
55191;BME280;41070;50.360;18.742;2023-02-24T22:41:43;96633.13;;;5.74;99.97
55191;BME280;41070;50.360;18.742;2023-02-24T22:44:15;96628.31;;;5.71;99.88
55191;BME280;41070;50.360;18.742;2023-02-24T22:46:44;96619.84;;;5.68;99.89
55191;BME280;41070;50.360;18.742;2023-02-24T22:49:12;96609.86;;;5.65;99.90
55191;BME280;41070;50.360;18.742;2023-02-24T22:51:40;96597.13;;;5.60;100.00
55191;BME280;41070;50.360;18.742;2023-02-24T22:54:08;96584.59;;;5.51;99.99
55191;BME280;41070;50.360;18.742;2023-02-24T22:56:36;96601.52;;;5.39;99.47
55191;BME280;41070;50.360;18.742;2023-02-24T22:59:04;96614.23;;;5.27;99.66
55191;BME280;41070;50.360;18.742;2023-02-24T23:01:34;96612.28;;;5.19;99.60
55191;BME280;41070;50.360;18.742;2023-02-24T23:04:06;96610.26;;;5.11;99.70
55191;BME280;41070;50.360;18.742;2023-02-24T23:06:37;96617.06;;;5.01;99.66
55191;BME280;41070;50.360;18.742;2023-02-24T23:09:05;96614.95;;;4.92;99.60
55191;BME280;41070;50.360;18.742;2023-02-24T23:11:37;96617.84;;;4.85;99.80
55191;BME280;41070;50.360;18.742;2023-02-24T23:14:09;96618.77;;;4.77;99.80
55191;BME280;41070;50.360;18.742;2023-02-24T23:16:40;96610.23;;;4.69;99.99
55191;BME280;41070;50.360;18.742;2023-02-24T23:19:18;96598.95;;;4.65;100.00
55191;BME280;41070;50.360;18.742;2023-02-24T23:21:51;96590.88;;;4.62;100.00
55191;BME280;41070;50.360;18.742;2023-02-24T23:24:20;96600.66;;;4.60;100.00
55191;BME280;41070;50.360;18.742;2023-02-24T23:26:53;96601.91;;;4.58;100.00
55191;BME280;41070;50.360;18.742;2023-02-24T23:29:24;96590.02;;;4.57;100.00
55191;BME280;41070;50.360;18.742;2023-02-24T23:31:52;96581.67;;;4.56;100.00
55191;BME280;41070;50.360;18.742;2023-02-24T23:34:20;96580.55;;;4.56;100.00
55191;BME280;41070;50.360;18.742;2023-02-24T23:36:48;96579.38;;;4.58;100.00
55191;BME280;41070;50.360;18.742;2023-02-24T23:39:17;96580.31;;;4.56;99.97
55191;BME280;41070;50.360;18.742;2023-02-24T23:41:46;96574.08;;;4.53;99.96
55191;BME280;41070;50.360;18.742;2023-02-24T23:44:14;96572.51;;;4.50;99.47
55191;BME280;41070;50.360;18.742;2023-02-24T23:46:42;96571.63;;;4.48;99.66
55191;BME280;41070;50.360;18.742;2023-02-24T23:49:10;96575.97;;;4.50;99.59
55191;BME280;41070;50.360;18.742;2023-02-24T23:51:38;96578.69;;;4.53;99.39
55191;BME280;41070;50.360;18.742;2023-02-24T23:54:06;96572.88;;;4.54;99.32
55191;BME280;41070;50.360;18.742;2023-02-24T23:56:34;96571.48;;;4.57;99.30
55191;BME280;41070;50.360;18.742;2023-02-24T23:59:01;96575.64;;;4.61;99.22
